sensor_id;sensor_type;location;lat;lon;timestamp;temperature;humidity
44117;DHT22;29781;49.480;8.512;2023-02-17T00:01:01;10.30;99.90
44117;DHT22;29781;49.480;8.512;2023-02-17T00:03:32;10.30;99.90
44117;DHT22;29781;49.480;8.512;2023-02-17T00:05:58;10.40;99.90
44117;DHT22;29781;49.480;8.512;2023-02-17T00:08:23;10.30;99.90
44117;DHT22;29781;49.480;8.512;2023-02-17T00:10:56;10.30;99.90
44117;DHT22;29781;49.480;8.512;2023-02-17T00:13:22;10.30;99.90
44117;DHT22;29781;49.480;8.512;2023-02-17T00:15:47;10.30;99.90
44117;DHT22;29781;49.480;8.512;2023-02-17T00:18:12;10.40;99.90
44117;DHT22;29781;49.480;8.512;2023-02-17T00:20:38;10.40;99.90
44117;DHT22;29781;49.480;8.512;2023-02-17T00:23:03;10.50;99.90
44117;DHT22;29781;49.480;8.512;2023-02-17T00:25:29;10.60;99.90
44117;DHT22;29781;49.480;8.512;2023-02-17T00:27:54;10.70;99.90
44117;DHT22;29781;49.480;8.512;2023-02-17T00:30:19;10.70;99.90
44117;DHT22;29781;49.480;8.512;2023-02-17T00:32:45;10.70;99.90
44117;DHT22;29781;49.480;8.512;2023-02-17T00:35:10;10.70;99.90
44117;DHT22;29781;49.480;8.512;2023-02-17T00:37:36;10.60;99.90
44117;DHT22;29781;49.480;8.512;2023-02-17T00:40:01;10.70;99.90
44117;DHT22;29781;49.480;8.512;2023-02-17T00:42:27;10.70;99.90
44117;DHT22;29781;49.480;8.512;2023-02-17T00:44:53;10.60;99.90
44117;DHT22;29781;49.480;8.512;2023-02-17T00:47:18;10.60;99.90
44117;DHT22;29781;49.480;8.512;2023-02-17T00:49:43;10.60;99.90
44117;DHT22;29781;49.480;8.512;2023-02-17T00:52:09;10.50;99.90
44117;DHT22;29781;49.480;8.512;2023-02-17T00:54:34;10.40;99.90
44117;DHT22;29781;49.480;8.512;2023-02-17T00:57:00;10.40;99.90
44117;DHT22;29781;49.480;8.512;2023-02-17T00:59:25;10.30;99.90
44117;DHT22;29781;49.480;8.512;2023-02-17T01:01:51;10.20;99.90
44117;DHT22;29781;49.480;8.512;2023-02-17T01:04:16;10.30;99.90
44117;DHT22;29781;49.480;8.512;2023-02-17T01:06:41;10.20;99.90
44117;DHT22;29781;49.480;8.512;2023-02-17T01:09:07;10.20;99.90
44117;DHT22;29781;49.480;8.512;2023-02-17T01:11:34;10.20;99.90
44117;DHT22;29781;49.480;8.512;2023-02-17T01:14:00;10.10;99.90
44117;DHT22;29781;49.480;8.512;2023-02-17T01:16:27;10.10;99.90
44117;DHT22;29781;49.480;8.512;2023-02-17T01:18:53;10.10;99.90
44117;DHT22;29781;49.480;8.512;2023-02-17T01:21:20;10.00;99.90
44117;DHT22;29781;49.480;8.512;2023-02-17T01:23:49;9.90;99.90
44117;DHT22;29781;49.480;8.512;2023-02-17T01:26:15;10.00;99.90
44117;DHT22;29781;49.480;8.512;2023-02-17T01:28:40;9.90;99.90
44117;DHT22;29781;49.480;8.512;2023-02-17T01:31:09;9.90;99.90
44117;DHT22;29781;49.480;8.512;2023-02-17T01:33:35;9.90;99.90
44117;DHT22;29781;49.480;8.512;2023-02-17T01:36:05;9.90;99.90
44117;DHT22;29781;49.480;8.512;2023-02-17T01:38:31;9.90;99.90
44117;DHT22;29781;49.480;8.512;2023-02-17T01:40:56;9.90;99.90
44117;DHT22;29781;49.480;8.512;2023-02-17T01:43:22;9.90;99.90
44117;DHT22;29781;49.480;8.512;2023-02-17T01:45:54;10.00;99.90
44117;DHT22;29781;49.480;8.512;2023-02-17T01:49:07;10.10;99.90
44117;DHT22;29781;49.480;8.512;2023-02-17T01:51:09;10.20;99.90
44117;DHT22;29781;49.480;8.512;2023-02-17T01:53:43;10.20;99.90
44117;DHT22;29781;49.480;8.512;2023-02-17T01:56:10;10.20;99.90
44117;DHT22;29781;49.480;8.512;2023-02-17T01:58:39;10.20;99.90
44117;DHT22;29781;49.480;8.512;2023-02-17T02:01:05;10.20;99.90
44117;DHT22;29781;49.480;8.512;2023-02-17T02:03:31;10.10;99.90
44117;DHT22;29781;49.480;8.512;2023-02-17T02:05:59;10.10;99.90
44117;DHT22;29781;49.480;8.512;2023-02-17T02:08:26;10.10;99.90
44117;DHT22;29781;49.480;8.512;2023-02-17T02:10:52;10.10;99.90
44117;DHT22;29781;49.480;8.512;2023-02-17T02:13:17;10.20;99.90
44117;DHT22;29781;49.480;8.512;2023-02-17T02:15:44;10.20;99.90
44117;DHT22;29781;49.480;8.512;2023-02-17T02:18:17;10.10;99.90
44117;DHT22;29781;49.480;8.512;2023-02-17T02:23:49;10.10;99.90
44117;DHT22;29781;49.480;8.512;2023-02-17T02:34:11;10.30;99.90
44117;DHT22;29781;49.480;8.512;2023-02-17T02:36:50;10.30;99.90
44117;DHT22;29781;49.480;8.512;2023-02-17T02:39:19;10.40;99.90
44117;DHT22;29781;49.480;8.512;2023-02-17T02:44:11;10.50;99.90
44117;DHT22;29781;49.480;8.512;2023-02-17T02:46:37;10.60;99.90
44117;DHT22;29781;49.480;8.512;2023-02-17T02:49:03;10.70;99.90
44117;DHT22;29781;49.480;8.512;2023-02-17T02:51:40;10.70;99.90
44117;DHT22;29781;49.480;8.512;2023-02-17T02:54:18;10.70;99.90
44117;DHT22;29781;49.480;8.512;2023-02-17T02:56:48;10.70;99.90
44117;DHT22;29781;49.480;8.512;2023-02-17T03:04:16;10.70;99.90
44117;DHT22;29781;49.480;8.512;2023-02-17T03:06:52;10.70;99.90
44117;DHT22;29781;49.480;8.512;2023-02-17T03:09:20;10.60;99.90
44117;DHT22;29781;49.480;8.512;2023-02-17T03:11:47;10.70;99.90
44117;DHT22;29781;49.480;8.512;2023-02-17T03:14:13;10.70;99.90
44117;DHT22;29781;49.480;8.512;2023-02-17T03:16:39;10.70;99.90
44117;DHT22;29781;49.480;8.512;2023-02-17T03:19:06;10.70;99.90
44117;DHT22;29781;49.480;8.512;2023-02-17T03:21:36;10.60;99.90
44117;DHT22;29781;49.480;8.512;2023-02-17T03:24:03;10.60;99.90
44117;DHT22;29781;49.480;8.512;2023-02-17T03:26:28;10.60;99.90
44117;DHT22;29781;49.480;8.512;2023-02-17T03:28:54;10.50;99.90
44117;DHT22;29781;49.480;8.512;2023-02-17T03:31:19;10.50;99.90
44117;DHT22;29781;49.480;8.512;2023-02-17T03:33:45;10.60;99.90
44117;DHT22;29781;49.480;8.512;2023-02-17T03:36:10;10.60;99.90
44117;DHT22;29781;49.480;8.512;2023-02-17T03:38:36;10.50;99.90
44117;DHT22;29781;49.480;8.512;2023-02-17T03:41:01;10.50;99.90
44117;DHT22;29781;49.480;8.512;2023-02-17T03:43:26;10.50;99.90
44117;DHT22;29781;49.480;8.512;2023-02-17T03:45:52;10.50;99.90
44117;DHT22;29781;49.480;8.512;2023-02-17T03:48:17;10.50;99.90
44117;DHT22;29781;49.480;8.512;2023-02-17T03:50:43;10.50;99.90
44117;DHT22;29781;49.480;8.512;2023-02-17T03:53:09;10.50;99.90
44117;DHT22;29781;49.480;8.512;2023-02-17T03:55:35;10.60;99.90
44117;DHT22;29781;49.480;8.512;2023-02-17T03:58:00;10.60;99.90
44117;DHT22;29781;49.480;8.512;2023-02-17T04:00:26;10.60;99.90
44117;DHT22;29781;49.480;8.512;2023-02-17T04:02:51;10.60;99.90
44117;DHT22;29781;49.480;8.512;2023-02-17T04:05:17;10.60;99.90
44117;DHT22;29781;49.480;8.512;2023-02-17T04:07:42;10.60;99.90
44117;DHT22;29781;49.480;8.512;2023-02-17T04:10:07;10.60;99.90
44117;DHT22;29781;49.480;8.512;2023-02-17T04:12:33;10.70;99.90
44117;DHT22;29781;49.480;8.512;2023-02-17T04:14:58;10.70;99.90
44117;DHT22;29781;49.480;8.512;2023-02-17T04:17:24;10.70;99.90
44117;DHT22;29781;49.480;8.512;2023-02-17T04:19:49;10.80;99.90
44117;DHT22;29781;49.480;8.512;2023-02-17T04:22:15;10.70;99.90
44117;DHT22;29781;49.480;8.512;2023-02-17T04:24:40;10.70;99.90
44117;DHT22;29781;49.480;8.512;2023-02-17T04:27:05;10.80;99.90
44117;DHT22;29781;49.480;8.512;2023-02-17T04:29:31;10.80;99.90
44117;DHT22;29781;49.480;8.512;2023-02-17T04:31:57;10.70;99.90
44117;DHT22;29781;49.480;8.512;2023-02-17T04:34:22;10.80;99.90
44117;DHT22;29781;49.480;8.512;2023-02-17T04:36:48;10.80;99.90
44117;DHT22;29781;49.480;8.512;2023-02-17T04:39:13;10.80;99.90
44117;DHT22;29781;49.480;8.512;2023-02-17T04:41:38;10.80;99.90
44117;DHT22;29781;49.480;8.512;2023-02-17T04:44:04;10.70;99.90
44117;DHT22;29781;49.480;8.512;2023-02-17T04:46:29;10.70;99.90
44117;DHT22;29781;49.480;8.512;2023-02-17T04:48:55;10.70;99.90
44117;DHT22;29781;49.480;8.512;2023-02-17T04:51:20;10.70;99.90
44117;DHT22;29781;49.480;8.512;2023-02-17T04:53:46;10.70;99.90
44117;DHT22;29781;49.480;8.512;2023-02-17T04:56:11;10.70;99.90
44117;DHT22;29781;49.480;8.512;2023-02-17T04:58:37;10.70;99.90
44117;DHT22;29781;49.480;8.512;2023-02-17T05:01:02;10.70;99.90
44117;DHT22;29781;49.480;8.512;2023-02-17T05:03:28;10.70;99.90
44117;DHT22;29781;49.480;8.512;2023-02-17T05:05:53;10.70;99.90
44117;DHT22;29781;49.480;8.512;2023-02-17T05:08:18;10.70;99.90
44117;DHT22;29781;49.480;8.512;2023-02-17T05:10:44;10.70;99.90
44117;DHT22;29781;49.480;8.512;2023-02-17T05:13:09;10.70;99.90
44117;DHT22;29781;49.480;8.512;2023-02-17T05:15:35;10.70;99.90
44117;DHT22;29781;49.480;8.512;2023-02-17T05:18:00;10.80;99.90
44117;DHT22;29781;49.480;8.512;2023-02-17T05:20:26;10.80;99.90
44117;DHT22;29781;49.480;8.512;2023-02-17T05:22:51;10.70;99.90
44117;DHT22;29781;49.480;8.512;2023-02-17T05:25:17;10.80;99.90
44117;DHT22;29781;49.480;8.512;2023-02-17T05:27:42;10.70;99.90
44117;DHT22;29781;49.480;8.512;2023-02-17T05:30:08;10.70;99.90
44117;DHT22;29781;49.480;8.512;2023-02-17T05:32:33;10.70;99.90
44117;DHT22;29781;49.480;8.512;2023-02-17T05:34:59;10.70;99.90
44117;DHT22;29781;49.480;8.512;2023-02-17T05:37:25;10.70;99.90
44117;DHT22;29781;49.480;8.512;2023-02-17T05:39:51;10.70;99.90
44117;DHT22;29781;49.480;8.512;2023-02-17T05:42:16;10.70;99.90
44117;DHT22;29781;49.480;8.512;2023-02-17T05:44:42;10.70;99.90
44117;DHT22;29781;49.480;8.512;2023-02-17T05:47:07;10.60;99.90
44117;DHT22;29781;49.480;8.512;2023-02-17T05:49:32;10.70;99.90
44117;DHT22;29781;49.480;8.512;2023-02-17T05:51:58;10.70;99.90
44117;DHT22;29781;49.480;8.512;2023-02-17T05:54:23;10.70;99.90
44117;DHT22;29781;49.480;8.512;2023-02-17T05:56:49;10.60;99.90
44117;DHT22;29781;49.480;8.512;2023-02-17T05:59:14;10.70;99.90
44117;DHT22;29781;49.480;8.512;2023-02-17T06:01:40;10.70;99.90
44117;DHT22;29781;49.480;8.512;2023-02-17T06:04:05;10.60;99.90
44117;DHT22;29781;49.480;8.512;2023-02-17T06:06:30;10.60;99.90
44117;DHT22;29781;49.480;8.512;2023-02-17T06:08:56;10.60;99.90
44117;DHT22;29781;49.480;8.512;2023-02-17T06:11:21;10.60;99.90
44117;DHT22;29781;49.480;8.512;2023-02-17T06:13:47;10.60;99.90
44117;DHT22;29781;49.480;8.512;2023-02-17T06:16:12;10.60;99.90
44117;DHT22;29781;49.480;8.512;2023-02-17T06:18:38;10.60;99.90
44117;DHT22;29781;49.480;8.512;2023-02-17T06:21:03;10.60;99.90
44117;DHT22;29781;49.480;8.512;2023-02-17T06:23:29;10.60;99.90
44117;DHT22;29781;49.480;8.512;2023-02-17T06:25:54;10.60;99.90
44117;DHT22;29781;49.480;8.512;2023-02-17T06:28:20;10.60;99.90
44117;DHT22;29781;49.480;8.512;2023-02-17T06:30:45;10.60;99.90
44117;DHT22;29781;49.480;8.512;2023-02-17T06:33:10;10.60;99.90
44117;DHT22;29781;49.480;8.512;2023-02-17T06:35:36;10.60;99.90
44117;DHT22;29781;49.480;8.512;2023-02-17T06:38:01;10.60;99.90
44117;DHT22;29781;49.480;8.512;2023-02-17T06:40:27;10.60;99.90
44117;DHT22;29781;49.480;8.512;2023-02-17T06:42:52;10.60;99.90
44117;DHT22;29781;49.480;8.512;2023-02-17T06:45:18;10.60;99.90
44117;DHT22;29781;49.480;8.512;2023-02-17T06:47:43;10.60;99.90
44117;DHT22;29781;49.480;8.512;2023-02-17T06:50:09;10.50;99.90
44117;DHT22;29781;49.480;8.512;2023-02-17T06:52:34;10.50;99.90
44117;DHT22;29781;49.480;8.512;2023-02-17T06:55:00;10.40;99.90
44117;DHT22;29781;49.480;8.512;2023-02-17T06:57:26;10.50;99.90
44117;DHT22;29781;49.480;8.512;2023-02-17T06:59:51;10.50;99.90
44117;DHT22;29781;49.480;8.512;2023-02-17T07:02:16;10.50;99.90
44117;DHT22;29781;49.480;8.512;2023-02-17T07:04:42;10.50;99.90
44117;DHT22;29781;49.480;8.512;2023-02-17T07:07:08;10.50;99.90
44117;DHT22;29781;49.480;8.512;2023-02-17T07:09:34;10.50;99.90
44117;DHT22;29781;49.480;8.512;2023-02-17T07:12:00;10.40;99.90
44117;DHT22;29781;49.480;8.512;2023-02-17T07:14:25;10.50;99.90
44117;DHT22;29781;49.480;8.512;2023-02-17T07:16:51;10.50;99.90
44117;DHT22;29781;49.480;8.512;2023-02-17T07:19:16;10.50;99.90
44117;DHT22;29781;49.480;8.512;2023-02-17T07:21:42;10.40;99.90
44117;DHT22;29781;49.480;8.512;2023-02-17T07:24:07;10.40;99.90
44117;DHT22;29781;49.480;8.512;2023-02-17T07:26:36;10.50;99.90
44117;DHT22;29781;49.480;8.512;2023-02-17T07:29:02;10.60;99.90
44117;DHT22;29781;49.480;8.512;2023-02-17T07:31:28;10.70;99.90
44117;DHT22;29781;49.480;8.512;2023-02-17T07:33:53;10.70;99.90
44117;DHT22;29781;49.480;8.512;2023-02-17T07:36:19;10.70;99.90
44117;DHT22;29781;49.480;8.512;2023-02-17T07:38:44;10.80;99.90
44117;DHT22;29781;49.480;8.512;2023-02-17T07:41:11;10.80;99.90
44117;DHT22;29781;49.480;8.512;2023-02-17T07:43:37;10.70;99.90
44117;DHT22;29781;49.480;8.512;2023-02-17T07:46:03;10.60;99.90
44117;DHT22;29781;49.480;8.512;2023-02-17T07:48:28;10.50;99.90
44117;DHT22;29781;49.480;8.512;2023-02-17T07:50:54;10.50;99.90
44117;DHT22;29781;49.480;8.512;2023-02-17T07:53:19;10.50;99.90
44117;DHT22;29781;49.480;8.512;2023-02-17T07:55:45;10.60;99.90
44117;DHT22;29781;49.480;8.512;2023-02-17T07:58:10;10.60;99.90
44117;DHT22;29781;49.480;8.512;2023-02-17T08:00:36;10.50;99.90
44117;DHT22;29781;49.480;8.512;2023-02-17T08:03:01;10.50;99.90
44117;DHT22;29781;49.480;8.512;2023-02-17T08:05:27;10.50;99.90
44117;DHT22;29781;49.480;8.512;2023-02-17T08:07:52;10.50;99.90
44117;DHT22;29781;49.480;8.512;2023-02-17T08:10:38;10.50;99.90
44117;DHT22;29781;49.480;8.512;2023-02-17T08:13:23;10.50;99.90
44117;DHT22;29781;49.480;8.512;2023-02-17T08:15:49;10.60;99.90
44117;DHT22;29781;49.480;8.512;2023-02-17T08:18:14;10.60;99.90
44117;DHT22;29781;49.480;8.512;2023-02-17T08:20:39;10.70;99.90
44117;DHT22;29781;49.480;8.512;2023-02-17T08:23:05;10.60;99.90
44117;DHT22;29781;49.480;8.512;2023-02-17T08:25:34;10.70;99.90
44117;DHT22;29781;49.480;8.512;2023-02-17T08:28:02;10.60;99.90
44117;DHT22;29781;49.480;8.512;2023-02-17T08:30:28;10.70;99.90
44117;DHT22;29781;49.480;8.512;2023-02-17T08:32:53;10.80;99.90
44117;DHT22;29781;49.480;8.512;2023-02-17T08:35:19;10.90;99.90
44117;DHT22;29781;49.480;8.512;2023-02-17T08:37:47;10.90;99.90
44117;DHT22;29781;49.480;8.512;2023-02-17T08:40:13;11.00;99.90
44117;DHT22;29781;49.480;8.512;2023-02-17T08:42:39;11.00;99.90
44117;DHT22;29781;49.480;8.512;2023-02-17T08:45:04;11.00;99.90
44117;DHT22;29781;49.480;8.512;2023-02-17T08:47:30;10.90;99.90
44117;DHT22;29781;49.480;8.512;2023-02-17T08:49:55;11.00;99.90
44117;DHT22;29781;49.480;8.512;2023-02-17T08:52:21;11.00;99.90
44117;DHT22;29781;49.480;8.512;2023-02-17T08:54:46;11.00;99.90
44117;DHT22;29781;49.480;8.512;2023-02-17T08:57:12;11.00;99.90
44117;DHT22;29781;49.480;8.512;2023-02-17T08:59:37;11.00;99.90
44117;DHT22;29781;49.480;8.512;2023-02-17T09:02:03;11.00;99.90
44117;DHT22;29781;49.480;8.512;2023-02-17T09:04:28;11.10;99.90
44117;DHT22;29781;49.480;8.512;2023-02-17T09:06:54;11.10;99.90
44117;DHT22;29781;49.480;8.512;2023-02-17T09:09:23;11.10;99.90
44117;DHT22;29781;49.480;8.512;2023-02-17T09:11:51;11.10;99.90
44117;DHT22;29781;49.480;8.512;2023-02-17T09:14:18;11.00;99.90
44117;DHT22;29781;49.480;8.512;2023-02-17T09:16:43;11.10;99.90
44117;DHT22;29781;49.480;8.512;2023-02-17T09:19:09;11.10;99.90
44117;DHT22;29781;49.480;8.512;2023-02-17T09:21:34;11.10;99.90
44117;DHT22;29781;49.480;8.512;2023-02-17T09:23:59;11.20;99.90
44117;DHT22;29781;49.480;8.512;2023-02-17T09:26:25;11.20;99.90
44117;DHT22;29781;49.480;8.512;2023-02-17T09:28:50;11.30;99.90
44117;DHT22;29781;49.480;8.512;2023-02-17T09:31:17;11.30;99.90
44117;DHT22;29781;49.480;8.512;2023-02-17T09:33:43;11.30;99.90
44117;DHT22;29781;49.480;8.512;2023-02-17T09:36:11;11.30;99.90
44117;DHT22;29781;49.480;8.512;2023-02-17T09:38:37;11.30;99.90
44117;DHT22;29781;49.480;8.512;2023-02-17T09:41:07;11.30;99.90
44117;DHT22;29781;49.480;8.512;2023-02-17T09:43:33;11.40;99.90
44117;DHT22;29781;49.480;8.512;2023-02-17T09:46:06;11.30;99.90
44117;DHT22;29781;49.480;8.512;2023-02-17T09:48:34;11.30;99.90
44117;DHT22;29781;49.480;8.512;2023-02-17T09:51:04;11.20;99.90
44117;DHT22;29781;49.480;8.512;2023-02-17T09:55:56;11.30;99.90
44117;DHT22;29781;49.480;8.512;2023-02-17T10:00:58;11.40;99.90
44117;DHT22;29781;49.480;8.512;2023-02-17T10:03:33;11.40;99.90
44117;DHT22;29781;49.480;8.512;2023-02-17T10:06:17;11.40;99.90
44117;DHT22;29781;49.480;8.512;2023-02-17T10:08:48;11.40;99.90
44117;DHT22;29781;49.480;8.512;2023-02-17T10:11:34;11.40;99.90
44117;DHT22;29781;49.480;8.512;2023-02-17T10:14:03;11.40;99.90
44117;DHT22;29781;49.480;8.512;2023-02-17T10:16:38;11.40;99.90
44117;DHT22;29781;49.480;8.512;2023-02-17T10:19:10;11.50;99.90
44117;DHT22;29781;49.480;8.512;2023-02-17T10:21:38;11.50;99.90
44117;DHT22;29781;49.480;8.512;2023-02-17T10:24:06;11.50;99.90
44117;DHT22;29781;49.480;8.512;2023-02-17T10:26:45;11.50;99.90
44117;DHT22;29781;49.480;8.512;2023-02-17T10:31:45;11.50;99.90
44117;DHT22;29781;49.480;8.512;2023-02-17T10:37:00;11.60;99.90
44117;DHT22;29781;49.480;8.512;2023-02-17T10:41:54;11.60;99.90
44117;DHT22;29781;49.480;8.512;2023-02-17T10:44:21;11.60;99.90
44117;DHT22;29781;49.480;8.512;2023-02-17T10:46:47;11.60;99.90
44117;DHT22;29781;49.480;8.512;2023-02-17T10:49:16;11.70;99.90
44117;DHT22;29781;49.480;8.512;2023-02-17T10:51:42;11.70;99.90
44117;DHT22;29781;49.480;8.512;2023-02-17T10:56:53;11.80;99.90
44117;DHT22;29781;49.480;8.512;2023-02-17T10:59:26;11.80;99.90
44117;DHT22;29781;49.480;8.512;2023-02-17T11:01:55;11.80;99.90
44117;DHT22;29781;49.480;8.512;2023-02-17T11:04:20;11.80;99.90
44117;DHT22;29781;49.480;8.512;2023-02-17T11:06:49;11.90;99.90
44117;DHT22;29781;49.480;8.512;2023-02-17T11:09:25;12.00;99.90
44117;DHT22;29781;49.480;8.512;2023-02-17T11:12:10;12.00;99.90
44117;DHT22;29781;49.480;8.512;2023-02-17T11:14:36;12.00;99.90
44117;DHT22;29781;49.480;8.512;2023-02-17T11:17:03;12.00;99.90
44117;DHT22;29781;49.480;8.512;2023-02-17T11:19:36;12.00;99.90
44117;DHT22;29781;49.480;8.512;2023-02-17T11:22:03;12.00;99.90
44117;DHT22;29781;49.480;8.512;2023-02-17T11:24:30;12.10;99.90
44117;DHT22;29781;49.480;8.512;2023-02-17T11:27:09;12.20;99.90
44117;DHT22;29781;49.480;8.512;2023-02-17T11:29:35;12.20;99.90
44117;DHT22;29781;49.480;8.512;2023-02-17T11:32:02;12.30;99.90
44117;DHT22;29781;49.480;8.512;2023-02-17T11:34:31;12.30;99.90
44117;DHT22;29781;49.480;8.512;2023-02-17T11:36:59;12.30;99.90
44117;DHT22;29781;49.480;8.512;2023-02-17T11:39:24;12.30;99.90
44117;DHT22;29781;49.480;8.512;2023-02-17T11:41:50;12.30;99.90
44117;DHT22;29781;49.480;8.512;2023-02-17T11:44:23;12.30;99.90
44117;DHT22;29781;49.480;8.512;2023-02-17T11:46:54;12.30;99.90
44117;DHT22;29781;49.480;8.512;2023-02-17T11:51:52;12.40;99.90
44117;DHT22;29781;49.480;8.512;2023-02-17T11:56:57;12.40;99.90
44117;DHT22;29781;49.480;8.512;2023-02-17T12:02:16;12.50;99.90
44117;DHT22;29781;49.480;8.512;2023-02-17T12:17:58;12.50;99.90
44117;DHT22;29781;49.480;8.512;2023-02-17T12:25:44;12.50;99.90
44117;DHT22;29781;49.480;8.512;2023-02-17T12:28:31;12.60;99.90
44117;DHT22;29781;49.480;8.512;2023-02-17T12:31:01;12.60;99.90
44117;DHT22;29781;49.480;8.512;2023-02-17T12:36:13;12.60;99.90
44117;DHT22;29781;49.480;8.512;2023-02-17T12:38:43;12.70;99.90
44117;DHT22;29781;49.480;8.512;2023-02-17T12:41:20;12.70;99.90
44117;DHT22;29781;49.480;8.512;2023-02-17T12:44:21;12.80;99.90
44117;DHT22;29781;49.480;8.512;2023-02-17T12:46:40;12.80;99.90
44117;DHT22;29781;49.480;8.512;2023-02-17T12:49:11;12.70;99.90
44117;DHT22;29781;49.480;8.512;2023-02-17T12:51:38;12.70;99.90
44117;DHT22;29781;49.480;8.512;2023-02-17T12:54:09;12.70;99.90
44117;DHT22;29781;49.480;8.512;2023-02-17T12:56:43;12.90;99.90
44117;DHT22;29781;49.480;8.512;2023-02-17T12:59:13;13.10;99.90
44117;DHT22;29781;49.480;8.512;2023-02-17T13:01:41;13.10;99.90
44117;DHT22;29781;49.480;8.512;2023-02-17T13:04:11;13.20;99.90
44117;DHT22;29781;49.480;8.512;2023-02-17T13:06:40;13.30;99.90
44117;DHT22;29781;49.480;8.512;2023-02-17T13:09:19;13.30;99.90
44117;DHT22;29781;49.480;8.512;2023-02-17T13:11:47;13.40;99.90
44117;DHT22;29781;49.480;8.512;2023-02-17T13:14:27;13.40;99.90
44117;DHT22;29781;49.480;8.512;2023-02-17T13:16:52;13.30;99.90
44117;DHT22;29781;49.480;8.512;2023-02-17T13:19:32;13.20;99.90
44117;DHT22;29781;49.480;8.512;2023-02-17T13:21:58;13.20;99.90
44117;DHT22;29781;49.480;8.512;2023-02-17T13:24:33;13.30;99.90
44117;DHT22;29781;49.480;8.512;2023-02-17T13:27:33;13.30;99.90
44117;DHT22;29781;49.480;8.512;2023-02-17T13:29:58;13.30;99.90
44117;DHT22;29781;49.480;8.512;2023-02-17T13:32:30;13.20;99.90
44117;DHT22;29781;49.480;8.512;2023-02-17T13:35:01;13.20;99.90
44117;DHT22;29781;49.480;8.512;2023-02-17T13:42:45;13.20;99.90
44117;DHT22;29781;49.480;8.512;2023-02-17T13:47:42;13.10;99.90
44117;DHT22;29781;49.480;8.512;2023-02-17T13:52:55;13.10;99.90
44117;DHT22;29781;49.480;8.512;2023-02-17T13:55:21;13.10;99.90
44117;DHT22;29781;49.480;8.512;2023-02-17T13:57:50;13.20;99.90
44117;DHT22;29781;49.480;8.512;2023-02-17T14:00:26;13.30;99.90
44117;DHT22;29781;49.480;8.512;2023-02-17T14:02:53;13.40;99.90
44117;DHT22;29781;49.480;8.512;2023-02-17T14:08:02;13.60;99.90
44117;DHT22;29781;49.480;8.512;2023-02-17T14:10:28;13.50;99.90
44117;DHT22;29781;49.480;8.512;2023-02-17T14:12:54;13.70;99.90
44117;DHT22;29781;49.480;8.512;2023-02-17T14:15:21;13.90;99.90
44117;DHT22;29781;49.480;8.512;2023-02-17T14:17:47;14.00;99.90
44117;DHT22;29781;49.480;8.512;2023-02-17T14:25:26;13.70;99.90
44117;DHT22;29781;49.480;8.512;2023-02-17T14:27:52;13.60;99.90
44117;DHT22;29781;49.480;8.512;2023-02-17T14:30:37;13.50;99.90
44117;DHT22;29781;49.480;8.512;2023-02-17T14:33:07;13.40;99.90
44117;DHT22;29781;49.480;8.512;2023-02-17T14:38:40;13.10;99.90
44117;DHT22;29781;49.480;8.512;2023-02-17T14:41:06;13.00;99.90
44117;DHT22;29781;49.480;8.512;2023-02-17T14:43:33;13.00;99.90
44117;DHT22;29781;49.480;8.512;2023-02-17T14:45:59;13.00;99.90
44117;DHT22;29781;49.480;8.512;2023-02-17T14:48:24;12.90;99.90
44117;DHT22;29781;49.480;8.512;2023-02-17T14:50:50;12.80;99.90
44117;DHT22;29781;49.480;8.512;2023-02-17T14:55:51;12.80;99.90
44117;DHT22;29781;49.480;8.512;2023-02-17T14:58:19;12.80;99.90
44117;DHT22;29781;49.480;8.512;2023-02-17T15:00:45;12.80;99.90
44117;DHT22;29781;49.480;8.512;2023-02-17T15:03:10;12.80;99.90
44117;DHT22;29781;49.480;8.512;2023-02-17T15:05:35;12.80;99.90
44117;DHT22;29781;49.480;8.512;2023-02-17T15:08:01;12.80;99.90
44117;DHT22;29781;49.480;8.512;2023-02-17T15:10:27;12.70;99.90
44117;DHT22;29781;49.480;8.512;2023-02-17T15:12:53;12.70;99.90
44117;DHT22;29781;49.480;8.512;2023-02-17T15:15:18;12.70;99.90
44117;DHT22;29781;49.480;8.512;2023-02-17T15:17:44;12.60;99.90
44117;DHT22;29781;49.480;8.512;2023-02-17T15:20:10;12.60;99.90
44117;DHT22;29781;49.480;8.512;2023-02-17T15:22:36;12.60;99.90
44117;DHT22;29781;49.480;8.512;2023-02-17T15:25:15;12.60;99.90
44117;DHT22;29781;49.480;8.512;2023-02-17T15:27:41;12.60;99.90
44117;DHT22;29781;49.480;8.512;2023-02-17T15:30:17;12.50;99.90
44117;DHT22;29781;49.480;8.512;2023-02-17T15:32:43;12.60;99.90
44117;DHT22;29781;49.480;8.512;2023-02-17T15:35:13;12.50;99.90
44117;DHT22;29781;49.480;8.512;2023-02-17T15:37:39;12.50;99.90
44117;DHT22;29781;49.480;8.512;2023-02-17T15:40:05;12.50;99.90
44117;DHT22;29781;49.480;8.512;2023-02-17T15:42:31;12.50;99.90
44117;DHT22;29781;49.480;8.512;2023-02-17T15:44:56;12.50;99.90
44117;DHT22;29781;49.480;8.512;2023-02-17T15:47:22;12.50;99.90
44117;DHT22;29781;49.480;8.512;2023-02-17T15:49:47;12.50;99.90
44117;DHT22;29781;49.480;8.512;2023-02-17T15:52:13;12.50;99.90
44117;DHT22;29781;49.480;8.512;2023-02-17T15:54:39;12.50;99.90
44117;DHT22;29781;49.480;8.512;2023-02-17T15:57:05;12.50;99.90
44117;DHT22;29781;49.480;8.512;2023-02-17T15:59:32;12.50;99.90
44117;DHT22;29781;49.480;8.512;2023-02-17T16:01:58;12.50;99.90
44117;DHT22;29781;49.480;8.512;2023-02-17T16:04:26;12.50;99.90
44117;DHT22;29781;49.480;8.512;2023-02-17T16:06:52;12.50;99.90
44117;DHT22;29781;49.480;8.512;2023-02-17T16:09:18;12.40;99.90
44117;DHT22;29781;49.480;8.512;2023-02-17T16:11:46;12.50;99.90
44117;DHT22;29781;49.480;8.512;2023-02-17T16:14:15;12.40;99.90
44117;DHT22;29781;49.480;8.512;2023-02-17T16:16:45;12.40;99.90
44117;DHT22;29781;49.480;8.512;2023-02-17T16:19:10;12.40;99.90
44117;DHT22;29781;49.480;8.512;2023-02-17T16:21:36;12.30;99.90
44117;DHT22;29781;49.480;8.512;2023-02-17T16:24:01;12.30;99.90
44117;DHT22;29781;49.480;8.512;2023-02-17T16:26:29;12.30;99.90
44117;DHT22;29781;49.480;8.512;2023-02-17T16:28:55;12.30;99.90
44117;DHT22;29781;49.480;8.512;2023-02-17T16:31:21;12.30;99.90
44117;DHT22;29781;49.480;8.512;2023-02-17T16:33:46;12.30;99.90
44117;DHT22;29781;49.480;8.512;2023-02-17T16:36:19;12.30;99.90
44117;DHT22;29781;49.480;8.512;2023-02-17T16:38:47;12.30;99.90
44117;DHT22;29781;49.480;8.512;2023-02-17T16:41:13;12.30;99.90
44117;DHT22;29781;49.480;8.512;2023-02-17T16:43:39;12.30;99.90
44117;DHT22;29781;49.480;8.512;2023-02-17T16:46:04;12.30;99.90
44117;DHT22;29781;49.480;8.512;2023-02-17T16:48:31;12.30;99.90
44117;DHT22;29781;49.480;8.512;2023-02-17T16:50:57;12.30;99.90
44117;DHT22;29781;49.480;8.512;2023-02-17T16:53:22;12.30;99.90
44117;DHT22;29781;49.480;8.512;2023-02-17T16:55:48;12.30;99.90
44117;DHT22;29781;49.480;8.512;2023-02-17T16:58:14;12.40;99.90